Time;durP1;ratioP1;P1;durP2;ratioP2;P2;SDS_P1;SDS_P2;PMS_P1;PMS_P2;Temp;Humidity;BMP_temperature;BMP_pressure;BME280_temperature;BME280_humidity;BME280_pressure;Samples;Min_cycle;Max_cycle;Signal;HPM_P1;HPM_P2
2022/04/01 00:00:11;;;;;;;8.05;1.02;;;2.70;99.90;;;;;;5052553;28;20036;-88
2022/04/01 00:02:37;;;;;;;1.75;0.88;;;0.70;99.90;;;;;;5052360;28;20036;-88
2022/04/01 00:05:05;;;;;;;2.08;1.08;;;0.50;99.90;;;;;;5068778;28;20041;-92
2022/04/01 00:07:32;;;;;;;1.98;0.73;;;0.70;99.90;;;;;;5053277;28;20025;-83
2022/04/01 00:09:58;;;;;;;1.08;0.80;;;0.60;99.90;;;;;;5052218;28;20048;-92
2022/04/01 00:12:23;;;;;;;1.63;0.90;;;0.50;99.90;;;;;;5052930;28;20534;-85
2022/04/01 00:14:49;;;;;;;2.40;0.95;;;0.70;99.90;;;;;;5052099;28;20041;-85
2022/04/01 00:17:15;;;;;;;1.85;0.80;;;;;;;;;;5052862;28;20052;-81
2022/04/01 00:19:41;;;;;;;0.73;0.70;;;0.80;99.90;;;;;;5069818;28;20067;-83
2022/04/01 00:22:06;;;;;;;3.30;0.95;;;0.10;99.90;;;;;;5051383;28;20083;-87
2022/04/01 00:24:32;;;;;;;1.55;0.50;;;0.70;99.90;;;;;;5053066;28;20120;-88
2022/04/01 00:26:59;;;;;;;1.55;0.73;;;;;;;;;;5068353;28;20480;-83
2022/04/01 00:29:26;;;;;;;2.72;0.60;;;0.80;99.90;;;;;;5060612;28;20038;-84
2022/04/01 00:31:59;;;;;;;2.05;0.60;;;-0.20;99.90;;;;;;5068871;28;20037;-80
2022/04/01 00:34:28;;;;;;;4.03;0.95;;;0.20;99.90;;;;;;5061977;28;20435;-87
2022/04/01 00:36:55;;;;;;;1.73;0.80;;;1.90;99.90;;;;;;5051290;28;20377;-84
2022/04/01 00:39:23;;;;;;;1.88;0.70;;;1.30;99.90;;;;;;5069403;28;20115;-86
2022/04/01 00:41:49;;;;;;;3.70;0.88;;;0.50;99.90;;;;;;5069187;28;20157;-91
2022/04/01 00:44:17;;;;;;;0.90;0.50;;;0.30;99.90;;;;;;5051876;28;20546;-84
2022/04/01 00:46:45;;;;;;;1.10;0.45;;;0.70;99.90;;;;;;5069096;28;20074;-86
2022/04/01 00:49:11;;;;;;;0.98;0.80;;;0.40;99.90;;;;;;5052163;28;20094;-86
2022/04/01 00:51:40;;;;;;;1.33;0.60;;;0.10;99.90;;;;;;5068838;28;20055;-88
2022/04/01 00:54:06;;;;;;;0.73;0.70;;;0.00;99.90;;;;;;5068413;28;20048;-90
2022/04/01 00:56:33;;;;;;;1.45;0.50;;;0.10;99.90;;;;;;5052675;28;20033;-91
2022/04/01 00:59:00;;;;;;;2.83;1.27;;;0.70;99.90;;;;;;5068015;28;20492;-82
2022/04/01 01:01:26;;;;;;;2.20;0.60;;;3.70;99.90;;;;;;5052370;28;20040;-82
2022/04/01 01:03:52;;;;;;;0.93;0.50;;;1.40;99.90;;;;;;5068904;28;20047;-86
2022/04/01 01:06:21;;;;;;;4.80;0.70;;;2.40;99.90;;;;;;5052717;28;20044;-87
2022/04/01 01:08:48;;;;;;;6.97;1.10;;;0.80;99.90;;;;;;5052859;28;20118;-88
2022/04/01 01:11:14;;;;;;;2.25;1.50;;;0.20;99.90;;;;;;5051927;28;20036;-87
2022/04/01 01:13:40;;;;;;;2.53;0.90;;;0.80;99.90;;;;;;5070890;28;20047;-87
2022/04/01 01:16:07;;;;;;;1.77;0.77;;;-1.10;99.90;;;;;;5068559;28;20040;-83
2022/04/01 01:18:34;;;;;;;1.67;0.70;;;0.30;99.90;;;;;;5069249;28;20124;-83
2022/04/01 01:21:00;;;;;;;2.28;0.70;;;0.80;99.90;;;;;;5069201;28;20090;-87
2022/04/01 01:23:29;;;;;;;6.88;1.00;;;2.40;99.90;;;;;;5053025;28;20041;-85
2022/04/01 01:25:55;;;;;;;3.08;0.63;;;0.90;99.90;;;;;;5051653;28;20381;-89
2022/04/01 01:28:22;;;;;;;3.15;0.90;;;1.30;99.90;;;;;;5069851;28;20044;-81
2022/04/01 01:30:48;;;;;;;3.20;0.60;;;0.30;99.90;;;;;;5069863;28;20045;-87
2022/04/01 01:33:15;;;;;;;2.05;1.00;;;0.70;99.90;;;;;;5069451;28;20074;-83
2022/04/01 01:35:42;;;;;;;4.70;1.10;;;;;;;;;;5052061;28;20445;-90
2022/04/01 01:38:08;;;;;;;3.33;0.98;;;0.90;99.90;;;;;;5052814;28;20053;-87
2022/04/01 01:40:34;;;;;;;2.63;0.77;;;0.80;99.90;;;;;;5052985;28;20617;-91
2022/04/01 01:43:00;;;;;;;5.88;1.08;;;0.30;99.90;;;;;;5053689;28;20043;-83
2022/04/01 01:45:29;;;;;;;0.65;0.65;;;0.80;99.90;;;;;;5052857;28;20028;-86
2022/04/01 01:47:55;;;;;;;3.00;0.80;;;0.90;99.90;;;;;;5069132;28;20066;-80
2022/04/01 01:55:57;;;;;;;2.05;0.77;;;2.60;99.90;;;;;;5052400;28;20041;-89
2022/04/01 01:58:23;;;;;;;3.00;0.90;;;2.40;99.90;;;;;;5069422;28;20067;-87
2022/04/01 02:00:49;;;;;;;2.75;0.80;;;0.80;99.90;;;;;;5068901;28;20484;-92
2022/04/01 02:03:16;;;;;;;1.58;0.80;;;0.90;99.90;;;;;;5069240;28;20416;-88
2022/04/01 02:05:41;;;;;;;8.65;1.08;;;0.90;99.90;;;;;;5069084;28;20381;-89
2022/04/01 02:08:08;;;;;;;1.42;0.63;;;2.90;99.90;;;;;;5067402;28;20036;-83
2022/04/01 02:10:34;;;;;;;1.58;0.93;;;1.30;99.90;;;;;;5068677;28;20040;-92
2022/04/01 02:12:59;;;;;;;5.28;2.03;;;0.40;99.90;;;;;;5051569;28;20048;-83
2022/04/01 02:15:25;;;;;;;2.80;0.70;;;0.20;99.90;;;;;;5051487;28;20075;-85
2022/04/01 02:17:51;;;;;;;1.67;0.65;;;0.90;99.90;;;;;;5051366;28;20189;-87
2022/04/01 02:20:17;;;;;;;2.90;1.13;;;1.00;99.90;;;;;;5051537;28;20092;-90
2022/04/01 02:22:43;;;;;;;3.50;0.98;;;0.70;99.90;;;;;;5068381;28;20225;-86
2022/04/01 02:25:11;;;;;;;4.45;0.95;;;0.80;99.90;;;;;;5068027;28;20052;-93
2022/04/01 02:27:37;;;;;;;3.30;1.10;;;0.80;99.90;;;;;;5069410;28;20052;-91
2022/04/01 02:30:10;;;;;;;1.83;0.90;;;1.00;99.90;;;;;;5054389;28;20110;-90
2022/04/01 02:32:40;;;;;;;4.63;0.95;;;1.00;99.90;;;;;;5064444;28;20381;-81
2022/04/01 02:35:07;;;;;;;2.05;0.65;;;1.60;99.90;;;;;;5070937;28;20118;-90
2022/04/01 02:37:34;;;;;;;1.13;0.63;;;1.10;99.90;;;;;;5046634;28;20048;-87
2022/04/01 02:40:04;;;;;;;1.45;0.85;;;0.50;99.90;;;;;;5071263;28;20059;-85
2022/04/01 02:42:30;;;;;;;3.00;1.88;;;2.00;99.90;;;;;;5073225;28;20063;-78
2022/04/01 02:44:56;;;;;;;2.45;0.90;;;0.60;99.90;;;;;;5054563;28;20059;-91
2022/04/01 02:47:22;;;;;;;5.43;1.75;;;2.20;99.90;;;;;;5071643;28;20119;-87
2022/04/01 02:49:47;;;;;;;5.35;1.20;;;1.00;99.90;;;;;;5054261;28;20535;-93
2022/04/01 02:52:14;;;;;;;4.05;1.27;;;2.30;99.90;;;;;;5054739;28;20043;-83
2022/04/01 02:54:40;;;;;;;4.68;1.23;;;1.60;99.90;;;;;;5055225;28;20492;-79
2022/04/01 02:57:06;;;;;;;1.60;1.10;;;1.00;99.90;;;;;;5070501;28;20036;-85
2022/04/01 02:59:32;;;;;;;1.75;0.80;;;0.50;99.90;;;;;;5055044;28;20041;-83
2022/04/01 03:01:58;;;;;;;2.60;1.02;;;0.60;99.90;;;;;;5054127;28;20041;-84
2022/04/01 03:04:24;;;;;;;5.90;1.77;;;0.60;99.90;;;;;;5054084;28;20076;-87
2022/04/01 03:06:49;;;;;;;4.65;0.70;;;1.10;99.90;;;;;;5054287;28;20067;-87
2022/04/01 03:09:15;;;;;;;5.47;1.05;;;1.10;99.90;;;;;;5070826;28;20094;-87
2022/04/01 03:11:43;;;;;;;7.25;1.23;;;3.40;99.90;;;;;;5070805;28;20041;-91
2022/04/01 03:14:10;;;;;;;3.53;0.77;;;0.30;99.90;;;;;;5070518;28;20087;-91
2022/04/01 03:16:37;;;;;;;2.53;1.05;;;2.90;99.90;;;;;;5045990;28;20052;-89
2022/04/01 03:19:04;;;;;;;5.57;1.20;;;3.40;99.90;;;;;;5069630;28;20191;-80
2022/04/01 03:21:30;;;;;;;2.25;0.80;;;1.20;99.90;;;;;;5053882;28;20530;-87
2022/04/01 03:23:56;;;;;;;3.00;0.70;;;1.40;99.90;;;;;;5070216;28;20072;-85
2022/04/01 03:26:22;;;;;;;1.63;0.82;;;0.80;99.90;;;;;;5053541;28;20079;-91
2022/04/01 03:28:48;;;;;;;0.88;0.60;;;0.60;99.90;;;;;;5054003;28;20044;-83
2022/04/01 03:31:15;;;;;;;3.58;1.00;;;1.00;99.90;;;;;;5070617;28;20056;-90
2022/04/01 03:33:41;;;;;;;4.63;2.33;;;0.60;99.90;;;;;;5036351;28;20052;-79
2022/04/01 03:36:08;;;;;;;3.30;0.70;;;1.00;99.90;;;;;;5069936;28;20048;-80
2022/04/01 03:38:35;;;;;;;4.43;1.17;;;3.30;99.90;;;;;;5053474;28;20181;-85
2022/04/01 03:41:02;;;;;;;4.18;1.00;;;1.10;99.90;;;;;;5053035;28;20086;-82
2022/04/01 03:43:28;;;;;;;2.03;0.60;;;1.10;99.90;;;;;;5053621;28;20061;-79
2022/04/01 03:45:54;;;;;;;2.90;1.23;;;3.30;99.90;;;;;;5052975;28;20128;-83
2022/04/01 03:48:39;;;;;;;2.75;0.70;;;1.00;99.90;;;;;;5053318;28;20063;-87
2022/04/01 03:51:05;;;;;;;2.42;0.70;;;1.10;99.90;;;;;;5053098;28;20093;-84
2022/04/01 03:53:34;;;;;;;3.38;0.60;;;2.00;99.90;;;;;;5070684;28;20044;-87
2022/04/01 03:56:01;;;;;;;3.67;0.55;;;1.20;99.90;;;;;;5069501;28;20455;-84
2022/04/01 03:58:32;;;;;;;4.68;0.70;;;1.10;99.90;;;;;;5069977;28;20040;-85
2022/04/01 04:01:03;;;;;;;2.30;0.55;;;0.60;99.90;;;;;;5052132;28;20041;-89
2022/04/01 04:03:31;;;;;;;1.13;0.47;;;0.80;99.90;;;;;;5053068;28;20048;-85
2022/04/01 04:05:58;;;;;;;3.40;0.60;;;0.60;99.90;;;;;;5068985;28;20036;-80
2022/04/01 04:08:24;;;;;;;3.47;0.45;;;0.70;99.90;;;;;;5052407;28;20056;-88
2022/04/01 04:10:52;;;;;;;1.45;0.47;;;3.10;99.90;;;;;;5052780;28;20036;-85
2022/04/01 04:13:20;;;;;;;4.05;0.40;;;3.00;99.90;;;;;;5051954;28;20044;-89
2022/04/01 04:15:50;;;;;;;5.97;0.70;;;1.50;99.90;;;;;;5051600;28;20176;-87
2022/04/01 04:18:18;;;;;;;3.88;0.70;;;1.10;99.90;;;;;;5052726;28;20045;-88
2022/04/01 04:21:12;;;;;;;3.22;0.50;;;1.10;99.90;;;;;;5052632;28;20411;-77
2022/04/01 04:23:45;;;;;;;2.57;0.70;;;0.60;99.90;;;;;;5052638;28;20071;-82
2022/04/01 04:26:16;;;;;;;2.85;0.60;;;0.50;99.90;;;;;;5068897;28;20051;-77
2022/04/01 04:28:50;;;;;;;5.22;0.68;;;0.60;99.90;;;;;;5065699;28;20085;-77
2022/04/01 04:31:26;;;;;;;4.60;0.50;;;1.10;99.90;;;;;;5068814;28;20075;-89
2022/04/01 04:33:55;;;;;;;3.67;0.75;;;1.20;99.90;;;;;;5068395;28;20302;-87
2022/04/01 04:36:30;;;;;;;2.47;0.60;;;3.00;99.90;;;;;;5051293;28;20044;-90
2022/04/01 04:38:58;;;;;;;3.42;0.82;;;0.60;99.90;;;;;;5035732;28;20040;-76
2022/04/01 04:41:25;;;;;;;2.53;0.57;;;2.60;99.90;;;;;;5069100;28;20131;-86
2022/04/01 04:43:51;;;;;;;3.78;0.90;;;3.30;99.90;;;;;;5068127;28;20071;-85
2022/04/01 04:46:19;;;;;;;3.15;0.80;;;0.90;99.90;;;;;;5068498;28;20109;-88
2022/04/01 04:48:47;;;;;;;3.17;0.70;;;0.60;99.90;;;;;;5051658;28;20123;-86
2022/04/01 04:51:16;;;;;;;2.83;0.68;;;0.60;99.90;;;;;;5067044;28;20044;-89
2022/04/01 04:53:44;;;;;;;3.33;0.60;;;0.70;99.90;;;;;;5061060;28;20055;-87
2022/04/01 04:56:10;;;;;;;4.57;1.60;;;1.20;99.90;;;;;;5068214;28;20127;-77
2022/04/01 04:58:39;;;;;;;5.28;1.92;;;1.40;99.90;;;;;;5052285;28;20501;-84
2022/04/01 05:01:47;;;;;;;3.45;1.10;;;0.70;99.90;;;;;;5068141;28;20438;-78
2022/04/01 05:04:53;;;;;;;4.18;1.73;;;1.20;99.90;;;;;;5063052;28;20048;-82
2022/04/01 05:07:55;;;;;;;1.00;0.43;;;1.30;99.90;;;;;;5065578;28;20044;-80
2022/04/01 05:10:29;;;;;;;5.78;0.68;;;1.20;99.90;;;;;;5068021;28;20053;-80
2022/04/01 05:13:02;;;;;;;;;;;3.00;99.90;;;;;;5051312;28;20044;-82
2022/04/01 05:15:32;;;;;;;2.38;0.95;;;1.20;99.90;;;;;;5051929;28;19924;-88
2022/04/01 05:18:09;;;;;;;5.28;1.00;;;0.50;99.90;;;;;;5050397;28;20097;-89
2022/04/01 05:20:38;;;;;;;4.93;0.40;;;1.00;99.90;;;;;;5068641;28;20123;-91
2022/04/01 05:23:10;;;;;;;2.55;0.50;;;0.90;99.90;;;;;;5050903;28;20106;-86
2022/04/01 05:25:52;;;;;;;5.18;0.88;;;0.90;99.90;;;;;;5050919;28;20152;-89
2022/04/01 05:28:25;;;;;;;1.00;0.63;;;0.80;99.90;;;;;;5051468;28;20044;-88
2022/04/01 05:31:06;;;;;;;7.55;1.00;;;0.80;99.90;;;;;;5051476;28;20048;-84
2022/04/01 05:33:52;;;;;;;6.90;0.80;;;1.30;99.90;;;;;;5050065;28;20155;-76
2022/04/01 05:36:19;;;;;;;12.40;7.00;;;1.30;99.90;;;;;;5067559;28;20492;-89
2022/04/01 05:38:47;;;;;;;6.10;1.00;;;0.60;99.90;;;;;;5050417;28;20036;-76
2022/04/01 05:41:19;;;;;;;3.42;1.05;;;1.20;99.90;;;;;;5068650;28;20151;-77
2022/04/01 05:43:50;;;;;;;2.13;0.80;;;1.00;99.90;;;;;;5050630;28;20435;-88
2022/04/01 05:46:16;;;;;;;2.63;0.60;;;0.50;99.90;;;;;;5050427;28;20051;-84
2022/04/01 05:48:43;;;;;;;1.83;0.60;;;1.20;99.90;;;;;;5034826;28;20378;-83
2022/04/01 05:51:14;;;;;;;3.42;0.90;;;1.30;99.90;;;;;;5067450;28;20503;-84
2022/04/01 05:53:43;;;;;;;4.05;0.80;;;0.80;99.90;;;;;;5066597;28;20418;-89
2022/04/01 05:56:10;;;;;;;3.13;1.17;;;0.90;99.90;;;;;;5050574;28;20091;-76
2022/04/01 05:58:36;;;;;;;6.07;1.58;;;0.80;99.90;;;;;;5050732;28;20036;-80
2022/04/01 06:01:27;;;;;;;4.50;0.80;;;0.80;99.90;;;;;;5066356;28;20044;-78
2022/04/01 06:03:59;;;;;;;5.25;0.68;;;1.40;99.90;;;;;;5043282;28;20040;-82
2022/04/01 06:06:31;;;;;;;3.08;1.02;;;1.40;99.90;;;;;;5066973;28;20036;-84
2022/04/01 06:09:26;;;;;;;3.53;0.63;;;0.90;99.90;;;;;;5066962;28;20044;-76
2022/04/01 06:12:02;;;;;;;7.03;1.10;;;1.40;99.90;;;;;;5059468;28;20043;-86
2022/04/01 06:14:46;;;;;;;3.08;0.98;;;0.90;99.90;;;;;;5066319;28;20045;-88
2022/04/01 06:17:21;;;;;;;3.03;1.00;;;1.40;99.90;;;;;;5067118;28;20085;-87
2022/04/01 06:19:52;;;;;;;3.70;0.95;;;0.80;99.90;;;;;;5042067;28;20037;-80
2022/04/01 06:22:22;;;;;;;4.30;1.27;;;0.90;99.90;;;;;;5049855;28;20036;-87
2022/04/01 06:24:59;;;;;;;2.40;0.47;;;0.90;99.90;;;;;;5042012;28;20182;-83
2022/04/01 06:27:41;;;;;;;3.92;0.95;;;1.40;99.90;;;;;;5067016;28;20036;-77
2022/04/01 06:30:18;;;;;;;2.78;0.50;;;0.80;99.90;;;;;;5049875;28;20128;-85
2022/04/01 06:32:49;;;;;;;2.88;0.88;;;1.50;99.90;;;;;;5050147;28;20746;-77
2022/04/01 06:35:30;;;;;;;1.27;0.80;;;0.90;99.90;;;;;;5065585;28;20393;-87
2022/04/01 06:38:18;;;;;;;3.05;1.00;;;0.90;99.90;;;;;;5042773;28;20724;-81
2022/04/01 06:40:46;;;;;;;2.25;0.93;;;0.90;99.90;;;;;;5050318;28;20057;-78
2022/04/01 06:43:12;;;;;;;1.20;0.82;;;1.50;99.90;;;;;;5065689;28;20373;-77
2022/04/01 06:45:39;;;;;;;2.50;0.63;;;1.00;99.90;;;;;;5049828;28;20136;-85
2022/04/01 06:48:06;;;;;;;3.85;0.73;;;1.20;99.90;;;;;;5066209;28;20555;-80
2022/04/01 06:50:31;;;;;;;2.35;0.93;;;1.60;99.90;;;;;;5066252;28;20567;-86
2022/04/01 06:52:57;;;;;;;1.55;0.80;;;1.50;99.90;;;;;;5049396;28;20131;-86
2022/04/01 06:55:23;;;;;;;6.18;0.70;;;1.50;99.90;;;;;;5050067;28;20127;-85
2022/04/01 06:57:49;;;;;;;1.58;0.63;;;1.60;99.90;;;;;;5067100;28;20042;-88
2022/04/01 07:00:15;;;;;;;1.20;0.40;;;1.00;99.90;;;;;;5068312;28;20124;-88
2022/04/01 07:02:41;;;;;;;3.40;0.57;;;1.60;99.90;;;;;;5050149;28;20563;-86
2022/04/01 07:05:10;;;;;;;1.85;0.30;;;0.80;99.90;;;;;;5065439;28;20406;-89
2022/04/01 07:07:37;;;;;;;1.58;0.32;;;1.60;99.90;;;;;;5050627;28;20399;-89
2022/04/01 07:10:07;;;;;;;2.45;0.30;;;1.00;99.90;;;;;;5049013;28;20082;-86
2022/04/01 07:12:33;;;;;;;3.30;0.25;;;1.60;99.90;;;;;;5066714;28;20047;-85
2022/04/01 07:14:59;;;;;;;1.45;0.43;;;1.00;99.90;;;;;;5069782;28;20135;-88
2022/04/01 07:17:25;;;;;;;3.42;0.60;;;1.00;99.90;;;;;;5053277;28;20086;-87
2022/04/01 07:19:52;;;;;;;1.38;0.73;;;1.60;99.90;;;;;;5053210;28;20123;-88
2022/04/01 07:22:17;;;;;;;0.85;0.43;;;1.60;99.90;;;;;;5070079;28;20144;-88
2022/04/01 07:24:43;;;;;;;0.85;0.30;;;1.10;99.90;;;;;;5053148;28;20152;-81
2022/04/01 07:27:11;;;;;;;2.47;0.50;;;1.60;99.90;;;;;;5053485;28;20044;-78
2022/04/01 07:29:37;;;;;;;1.60;0.30;;;1.60;99.90;;;;;;5070332;28;20090;-78
2022/04/01 07:34:49;;;;;;;2.83;0.50;;;1.70;99.90;;;;;;5070649;28;20052;-78
2022/04/01 07:37:15;;;;;;;3.75;0.82;;;1.60;99.90;;;;;;5053181;28;20045;-78
2022/04/01 07:39:40;;;;;;;2.47;0.60;;;1.60;99.90;;;;;;5069509;28;20043;-78
2022/04/01 07:42:06;;;;;;;1.50;0.43;;;1.30;99.90;;;;;;5052876;28;20043;-82
2022/04/01 07:44:32;;;;;;;3.53;0.77;;;1.70;99.90;;;;;;5053181;28;20072;-77
2022/04/01 07:47:00;;;;;;;2.35;0.40;;;1.10;99.90;;;;;;5068846;28;20396;-85
2022/04/01 07:49:25;;;;;;;1.35;0.50;;;1.00;99.90;;;;;;5052781;28;20037;-87
2022/04/01 07:51:51;;;;;;;0.75;0.43;;;1.10;99.90;;;;;;5069075;28;20064;-89
2022/04/01 07:54:17;;;;;;;2.53;0.75;;;1.10;99.90;;;;;;5051718;28;20048;-88
2022/04/01 07:56:43;;;;;;;2.15;0.40;;;1.60;99.90;;;;;;5052994;28;20051;-84
2022/04/01 07:59:10;;;;;;;2.42;0.60;;;1.30;99.90;;;;;;5068908;28;20037;-88
2022/04/01 08:01:36;;;;;;;2.97;0.80;;;1.00;99.90;;;;;;5070797;28;20107;-80
2022/04/01 08:04:03;;;;;;;1.55;0.50;;;1.10;99.90;;;;;;5069744;28;20045;-81
2022/04/01 08:06:33;;;;;;;1.85;0.63;;;;;;;;;;5052217;28;20080;-88
2022/04/01 08:08:59;;;;;;;5.07;1.35;;;1.70;99.90;;;;;;5044242;28;20468;-77
2022/04/01 08:11:26;;;;;;;2.13;0.68;;;1.10;99.90;;;;;;5052989;28;20055;-78
2022/04/01 08:13:52;;;;;;;3.60;0.60;;;;;;;;;;5051274;28;20044;-79
2022/04/01 08:16:18;;;;;;;2.13;1.10;;;1.60;99.90;;;;;;5069057;28;20040;-88
2022/04/01 08:18:44;;;;;;;3.20;0.60;;;1.60;99.90;;;;;;5052371;28;20037;-82
2022/04/01 08:21:09;;;;;;;2.55;0.73;;;1.40;99.90;;;;;;5068416;28;20045;-78
2022/04/01 08:23:36;;;;;;;6.97;1.42;;;1.50;99.90;;;;;;5051987;28;20055;-77
2022/04/01 08:26:03;;;;;;;1.67;1.13;;;1.20;99.90;;;;;;5052047;28;20376;-77
2022/04/01 08:28:28;;;;;;;2.55;0.93;;;1.00;99.90;;;;;;5051783;28;20082;-79
2022/04/01 08:30:54;;;;;;;1.90;0.80;;;1.30;99.90;;;;;;5068848;28;20124;-86
2022/04/01 08:33:20;;;;;;;4.75;1.23;;;1.60;99.90;;;;;;5051426;28;20036;-87
2022/04/01 08:35:47;;;;;;;4.15;1.10;;;1.60;99.90;;;;;;5068021;28;20049;-87
2022/04/01 08:38:12;;;;;;;5.38;1.10;;;1.10;99.90;;;;;;5051985;28;20109;-82
2022/04/01 08:40:38;;;;;;;3.92;0.80;;;1.20;99.90;;;;;;5070220;28;20040;-80
2022/04/01 08:43:05;;;;;;;2.80;0.70;;;1.30;99.90;;;;;;5050126;28;20047;-78
2022/04/01 08:45:37;;;;;;;2.00;0.98;;;1.80;99.90;;;;;;5068930;28;20036;-77
2022/04/01 08:48:11;;;;;;;2.83;1.20;;;1.30;99.90;;;;;;5059974;28;20036;-76
2022/04/01 08:50:37;;;;;;;3.13;1.00;;;1.80;99.90;;;;;;5051974;28;20036;-79
2022/04/01 08:53:03;;;;;;;1.42;0.80;;;1.90;99.90;;;;;;5059364;28;20052;-78
2022/04/01 08:55:29;;;;;;;2.63;1.00;;;1.40;99.90;;;;;;5067997;28;20033;-88
2022/04/01 08:57:55;;;;;;;2.42;0.90;;;1.80;99.90;;;;;;5068229;28;20048;-86
2022/04/01 09:00:21;;;;;;;2.75;1.20;;;1.80;99.90;;;;;;5051374;28;20051;-87
2022/04/01 09:03:06;;;;;;;3.25;1.13;;;1.30;99.90;;;;;;5066984;28;20071;-86
2022/04/01 09:05:31;;;;;;;2.17;0.60;;;1.90;99.90;;;;;;5068459;28;20350;-87
2022/04/01 09:08:08;;;;;;;3.60;1.15;;;1.30;99.90;;;;;;5051035;28;20080;-77
2022/04/01 09:10:49;;;;;;;2.58;1.20;;;1.90;99.90;;;;;;5051165;28;20123;-86
2022/04/01 09:13:15;;;;;;;3.33;1.00;;;1.60;99.90;;;;;;5044293;28;20041;-82
2022/04/01 09:15:43;;;;;;;2.22;0.85;;;1.40;99.90;;;;;;5068016;28;20036;-85
2022/04/01 09:18:09;;;;;;;1.88;0.98;;;2.50;99.90;;;;;;5050675;28;20665;-87
2022/04/01 09:20:45;;;;;;;3.92;1.10;;;1.50;99.90;;;;;;5067861;28;20396;-83
2022/04/01 09:23:10;;;;;;;1.65;0.82;;;1.30;99.90;;;;;;5043265;28;20051;-88
2022/04/01 09:25:36;;;;;;;0.75;0.73;;;1.50;99.90;;;;;;5050950;28;20041;-89
2022/04/01 09:28:02;;;;;;;3.05;0.95;;;2.20;99.90;;;;;;5050611;28;20041;-85
2022/04/01 09:30:30;;;;;;;0.93;0.88;;;1.80;99.90;;;;;;5050772;28;20636;-80
2022/04/01 09:32:58;;;;;;;1.42;1.10;;;1.60;99.90;;;;;;5034209;28;20062;-84
2022/04/01 09:35:29;;;;;;;2.90;1.25;;;1.70;99.90;;;;;;5050956;28;20040;-86
2022/04/01 09:38:04;;;;;;;2.00;1.10;;;1.60;99.90;;;;;;5049569;28;20056;-86
2022/04/01 09:40:30;;;;;;;2.65;2.00;;;1.50;99.90;;;;;;5067885;28;20112;-81
2022/04/01 09:42:59;;;;;;;6.30;1.85;;;1.50;99.90;;;;;;5050473;28;20059;-84
2022/04/01 09:45:30;;;;;;;2.33;1.33;;;2.20;99.90;;;;;;5067066;28;20522;-82
2022/04/01 09:48:07;;;;;;;4.63;1.30;;;2.30;99.90;;;;;;5050791;28;20037;-87
2022/04/01 09:50:50;;;;;;;3.67;1.50;;;4.60;99.90;;;;;;5051236;28;20053;-85
2022/04/01 09:53:19;;;;;;;3.20;1.80;;;1.80;99.90;;;;;;5058818;28;20040;-88
2022/04/01 09:55:48;;;;;;;3.35;1.95;;;2.00;99.90;;;;;;5033783;28;20041;-81
2022/04/01 09:58:15;;;;;;;4.40;2.42;;;2.40;99.90;;;;;;5068997;28;20415;-87
2022/04/01 10:00:41;;;;;;;3.88;2.00;;;1.90;99.90;;;;;;5050205;28;20033;-87
2022/04/01 10:03:09;;;;;;;3.78;1.88;;;2.50;99.90;;;;;;5049824;28;20072;-86
2022/04/01 10:05:36;;;;;;;4.22;1.95;;;2.50;99.90;;;;;;5050544;28;20351;-78
2022/04/01 10:08:03;;;;;;;4.30;2.47;;;4.30;99.90;;;;;;5066646;28;20102;-85
2022/04/01 10:10:30;;;;;;;5.20;1.63;;;2.70;99.90;;;;;;5069469;28;20085;-85
2022/04/01 10:13:05;;;;;;;4.55;1.75;;;2.30;99.90;;;;;;5050045;28;20040;-86
2022/04/01 10:15:32;;;;;;;2.47;1.50;;;2.50;99.90;;;;;;5068065;28;20240;-89
2022/04/01 10:17:58;;;;;;;3.03;1.88;;;3.90;99.90;;;;;;5066817;28;20040;-86
2022/04/01 10:20:33;;;;;;;4.72;2.13;;;2.20;99.90;;;;;;5067005;28;20086;-88
2022/04/01 10:23:04;;;;;;;;;;;2.40;99.90;;;;;;5050513;28;20548;-81
2022/04/01 10:25:36;;;;;;;7.63;1.90;;;2.90;99.90;;;;;;5050632;28;19927;-89
2022/04/01 10:28:04;;;;;;;4.90;1.60;;;2.90;99.90;;;;;;5067260;28;20504;-83
2022/04/01 10:30:31;;;;;;;1.50;1.23;;;3.00;99.90;;;;;;5050493;28;20045;-88
2022/04/01 10:32:58;;;;;;;1.80;1.50;;;4.60;99.90;;;;;;5049411;28;20531;-83
2022/04/01 10:35:24;;;;;;;3.65;1.13;;;2.90;99.90;;;;;;5066500;28;20453;-83
2022/04/01 10:38:20;;;;;;;2.97;1.65;;;3.10;99.90;;;;;;5066781;28;20524;-88
2022/04/01 10:40:50;;;;;;;3.00;1.42;;;3.30;99.90;;;;;;5048721;28;20112;-80
2022/04/01 10:43:27;;;;;;;2.15;1.45;;;3.30;99.90;;;;;;5041644;28;20115;-83
2022/04/01 10:46:01;;;;;;;3.58;1.42;;;3.30;99.90;;;;;;5050062;28;20052;-89
2022/04/01 10:53:56;;;;;;;2.65;1.48;;;3.50;99.90;;;;;;5071767;28;20052;-87
2022/04/01 10:56:22;;;;;;;4.70;1.33;;;3.40;99.90;;;;;;5053829;28;20040;-87
2022/04/01 10:59:16;;;;;;;3.97;1.67;;;3.40;99.90;;;;;;5070703;28;20083;-88
2022/04/01 11:01:56;;;;;;;3.45;1.38;;;3.90;99.90;;;;;;5066210;28;20405;-88
2022/04/01 11:04:21;;;;;;;4.95;2.00;;;3.30;99.90;;;;;;5064271;28;20045;-85
2022/04/01 11:07:02;;;;;;;2.58;1.35;;;4.10;99.90;;;;;;5071256;28;20098;-87
2022/04/01 11:09:50;;;;;;;2.67;1.00;;;3.90;99.90;;;;;;5046195;28;20037;-87
2022/04/01 11:12:18;;;;;;;3.03;1.08;;;2.70;99.90;;;;;;5070097;28;20121;-81
2022/04/01 11:15:19;;;;;;;1.65;1.15;;;5.00;99.90;;;;;;5053316;28;20557;-77
2022/04/01 11:17:47;;;;;;;4.78;1.30;;;4.20;99.90;;;;;;5048430;28;20044;-87
2022/04/01 11:20:19;;;;;;;4.53;1.35;;;5.90;99.90;;;;;;5053578;28;20102;-88
2022/04/01 11:22:53;;;;;;;7.22;1.60;;;4.10;99.90;;;;;;5069679;28;20322;-84
2022/04/01 11:25:22;;;;;;;6.80;1.42;;;4.20;99.90;;;;;;5052241;28;20443;-77
2022/04/01 11:28:02;;;;;;;2.55;1.00;;;3.70;99.90;;;;;;5069730;28;20055;-77
2022/04/01 11:30:32;;;;;;;2.70;1.13;;;3.80;99.90;;;;;;5063896;28;20076;-89
2022/04/01 11:33:01;;;;;;;1.58;1.30;;;4.30;99.90;;;;;;5069173;28;20040;-79
2022/04/01 11:35:29;;;;;;;1.92;1.10;;;4.30;99.90;;;;;;5053140;28;20080;-82
2022/04/01 11:37:55;;;;;;;2.40;1.13;;;4.30;99.90;;;;;;5069133;28;20036;-87
2022/04/01 11:40:26;;;;;;;4.38;1.40;;;4.20;99.90;;;;;;5044952;28;20116;-88
2022/04/01 11:43:10;;;;;;;2.33;1.33;;;4.40;99.90;;;;;;5052910;28;20461;-87
2022/04/01 11:45:47;;;;;;;4.47;1.52;;;4.00;99.90;;;;;;5046126;28;20396;-77
2022/04/01 11:48:22;;;;;;;4.03;1.40;;;4.60;99.90;;;;;;5052903;28;20053;-83
2022/04/01 11:50:55;;;;;;;6.07;1.23;;;4.60;99.90;;;;;;5053060;28;20127;-79
2022/04/01 11:53:36;;;;;;;7.38;1.25;;;6.10;99.90;;;;;;5069822;28;20041;-89
2022/04/01 11:56:04;;;;;;;2.70;0.80;;;4.90;99.90;;;;;;5070225;28;20060;-84
2022/04/01 11:59:02;;;;;;;1.50;0.85;;;4.60;99.90;;;;;;5052252;28;20590;-83
2022/04/01 12:01:54;;;;;;;3.88;1.40;;;5.00;99.90;;;;;;5061600;28;20068;-83
2022/04/01 12:04:32;;;;;;;2.05;1.05;;;4.40;99.90;;;;;;5052159;28;20040;-77
2022/04/01 12:09:44;;;;;;;1.10;0.40;;;4.40;99.90;;;;;;5063321;28;20044;-88
2022/04/01 12:12:10;;;;;;;0.93;0.28;;;4.40;99.90;;;;;;5069360;28;20037;-77
2022/04/01 12:14:38;;;;;;;3.78;0.50;;;4.70;99.90;;;;;;5069845;28;20051;-81
2022/04/01 12:17:06;;;;;;;3.28;0.30;;;4.90;99.90;;;;;;5070168;28;20477;-81
2022/04/01 12:19:32;;;;;;;4.30;0.50;;;4.90;99.90;;;;;;5069801;28;20048;-76
2022/04/01 12:22:02;;;;;;;0.70;0.50;;;4.50;99.90;;;;;;5068617;28;20508;-88
2022/04/01 12:24:29;;;;;;;5.10;0.70;;;4.30;99.90;;;;;;5043807;28;20416;-84
2022/04/01 12:26:55;;;;;;;2.10;0.60;;;4.50;99.90;;;;;;5068366;28;20132;-85
2022/04/01 12:29:26;;;;;;;1.10;0.47;;;4.40;99.90;;;;;;5068619;28;20132;-76
2022/04/01 12:31:57;;;;;;;0.88;0.60;;;4.20;99.90;;;;;;5050318;28;20052;-77
2022/04/01 12:34:24;;;;;;;3.38;0.90;;;4.80;99.90;;;;;;5068393;28;20475;-78
2022/04/01 12:36:53;;;;;;;1.42;0.82;;;4.40;99.90;;;;;;5052130;28;20051;-76
2022/04/01 12:39:18;;;;;;;1.73;0.60;;;4.50;99.90;;;;;;5051601;28;20044;-79
2022/04/01 12:41:52;;;;;;;1.42;0.60;;;4.10;99.90;;;;;;5051835;28;20082;-76
2022/04/01 12:44:22;;;;;;;1.80;0.90;;;4.00;99.90;;;;;;5051558;28;20044;-85
2022/04/01 12:46:49;;;;;;;1.90;0.70;;;4.40;99.90;;;;;;5051507;28;20048;-85
2022/04/01 12:49:19;;;;;;;4.70;1.10;;;4.00;99.90;;;;;;5051796;28;20351;-76
2022/04/01 12:51:55;;;;;;;1.25;0.77;;;4.30;99.90;;;;;;5051598;28;20429;-75
2022/04/01 12:54:27;;;;;;;1.50;0.77;;;3.80;99.90;;;;;;5033818;28;20047;-84
2022/04/01 12:56:54;;;;;;;5.53;0.70;;;4.10;99.90;;;;;;5068486;28;20059;-75
2022/04/01 12:59:21;;;;;;;2.55;0.80;;;3.50;99.90;;;;;;5068330;28;20448;-88
2022/04/01 13:02:03;;;;;;;3.15;0.77;;;4.40;99.90;;;;;;5050575;28;20059;-88
2022/04/01 13:04:36;;;;;;;3.42;0.95;;;4.40;99.90;;;;;;5068091;28;20079;-85
2022/04/01 13:07:05;;;;;;;3.55;0.90;;;3.90;99.90;;;;;;5067508;28;20037;-80
2022/04/01 13:09:31;;;;;;;5.35;0.90;;;4.50;99.90;;;;;;5068374;28;20043;-88
2022/04/01 13:11:58;;;;;;;2.03;0.80;;;3.90;99.90;;;;;;5066793;28;20050;-81
2022/04/01 13:14:28;;;;;;;3.10;0.93;;;4.60;99.90;;;;;;5066758;28;20053;-85
2022/04/01 13:16:56;;;;;;;6.75;4.05;;;4.70;99.90;;;;;;5051326;28;20431;-85
2022/04/01 13:19:32;;;;;;;10.35;5.70;;;4.10;99.90;;;;;;5068291;28;20041;-76
2022/04/01 13:22:00;;;;;;;1.65;0.90;;;6.10;99.90;;;;;;5066450;28;20522;-76
2022/04/01 13:24:28;;;;;;;2.05;0.50;;;4.20;99.90;;;;;;5051354;28;20044;-82
2022/04/01 13:26:55;;;;;;;3.95;1.23;;;4.30;99.90;;;;;;5067860;28;20084;-76